Terminal Aerodrome Forecast
Issued by NWS Sterling, VA

Current Version | Previous Version | Graphics & Text | Print | Product List | Glossary On
Versions: 1 2 3 4 5 6 7 8 9 10 11 12 13 14 15 16 17 18 19 20 21 22 23
459
FTUS41 KLWX 140911 AAA
TAFIAD
TAF AMD
KIAD 140911Z 1409/1512 04004KT 4SM -RAPL OVC050
     FM141200 05004KT 3SM -RAPL OVC040
     FM141400 12004KT 3SM -FZRAPL OVC020
     FM141600 13004KT 3SM -FZRAPL OVC008
     FM142100 15004KT 3SM -FZRAPL OVC010
     FM150000 14004KT 2SM -RA OVC008
     FM150300 00000KT 6SM -RA OVC003=

USA.gov is the U.S. government's official web portal to all federal, state and local government web resources and services.